sept
18

MOTOCROSS DES NATIONS – FRANCE : LE LIVE..!


More Motocross Videos

SAMEDI

Free Practice (entraînement libre) MX1 – Classification
Pos Nr Rider Nat. Fed. Bike Bestlaptime in lap Diff. First Diff. Prev. Tot. Laps Speed
1 19 Pourcel, Christophe FRA FFM Kawasaki 1:38.120 11 0:00.000 0:00.000 13 55.035

2 13 Cairoli, Antonio ITA FMI KTM 1:38.207 12 0:00.087 0:00.087 15 54.986
3 1 Dungey, Ryan USA AMA Suzuki 1:38.390 15 0:00.270 0:00.183 20 54.884
4 113 Bobryshev, Evgeny RUS MFR Honda 1:39.591 14 0:01.471 0:01.201 18 54.222
5 25 Goncalves, Rui POR FMP Honda 1:39.781 13 0:01.661 0:00.190 16 54.119
6 116 Rattray, Tyla RSA MSA Kawasaki 1:39.810 12 0:01.690 0:00.029 18 54.103
7 16 Reed, Chad AUS MA Honda 1:40.082 12 0:01.962 0:00.272 15 53.956
8 10 Searle, Tommy GBR ACU Kawasaki 1:40.216 12 0:02.096 0:00.134 18 53.884
9 43 Leok, Tanel EST EMF TM 1:40.402 14 0:02.282 0:00.186 15 53.784
10 37 Barragan, Jonathan ESP RFME Kawasaki 1:41.012 13 0:02.892 0:00.610 15 53.459
11 58 Barr, Martin IRL MCUI KTM 1:42.321 9 0:04.201 0:01.309 14 52.775
12 40 Pyrhönen, Antti FIN SML Honda 1:42.722 13 0:04.602 0:00.401 16 52.569
13 4 Van Daele, Marvin BEL FMB Honda 1:43.217 9 0:05.097 0:00.495 13 52.317
14 125 Neugebauer, Filip CZE DMSB Kawasaki 1:43.467 15 0:05.347 0:00.250 17 52.191
15 55 Atsuta, Yoshitaka JPN MFJ Suzuki 1:43.779 11 0:05.659 0:00.312 16 52.034
16 110 Brakke, Herjan NED KNMV Yamaha 1:44.383 16 0:06.263 0:00.604 16 51.733
17 64 Noren, Fredrik SWE SVEMO Honda 1:44.570 6 0:06.450 0:00.187 6 51.64
18 7 Siegl, Daniel GER DMSB KTM 1:45.279 13 0:07.159 0:00.709 17 51.292
19 49 Freibergs, Lauris LAT LAMSF Honda 1:45.409 12 0:07.289 0:00.130 15 51.229
20 34 Schmidinger, Günter AUT OeAMTC Honda 1:45.640 10 0:07.520 0:00.231 15 51.117
21 52 Ferreira de Lima, Marcello BRA CBM Kawasaki 1:46.694 9 0:08.574 0:01.054 10 50.612
22 101 Nyegaard, Remi NOR NMF Yamaha 1:47.367 10 0:09.247 0:00.673 15 50.295
23 119 Hansen, Nicolai DEN DMU Suzuki 1:47.398 13 0:09.278 0:00.031 14 50.28
24 31 Furlato, Yves SUI FMS Kawasaki 1:48.059 12 0:09.939 0:00.661 15 49.973
25 22 Doeksen, Joel NZL MNZ KTM 1:48.321 14 0:10.201 0:00.262 17 49.852
26 82 Gelazninkas, Arunas LTU LMSF Kawasaki 1:49.443 13 0:11.323 0:01.122 15 49.341
27 67 Martin, Humberto VEN FMV Honda 1:50.040 10 0:11.920 0:00.597 15 49.073
28 73 Morozov, Roman UKR FMU Kawasaki 1:50.212 15 0:12.092 0:00.172 15 48.996
29 122 Sipek, Nenad CRO HMS Yamaha 1:50.236 10 0:12.116 0:00.024 13 48.986
30 128 Mulec, Toni SLO AMZS Suzuki 1:51.245 10 0:13.125 0:01.009 15 48.542
31 88 Gudbergsson, Viktor ISL MSI Suzuki 1:54.474 11 0:16.354 0:03.229 14 47.172
32 104 Ruadreo, Atison THA FMSCT Yamaha 2:00.286 13 0:22.166 0:05.812 15 44.893
33 131 Siafarikas, Vasilis GRE ELPA Honda 2:02.145 12 0:24.025 0:01.859 13 44.21
34 107 Xu, Jianhao CHN CMSA Honda 2:03.438 12 0:25.318 0:01.293 16 43.747
35 28 Grana, Luis M. PUR FMPR Yamaha 2:05.710 13 0:27.590 0:02.272 15 42.956
36 134 Abou, Meshari KUW KIAC Suzuki 2:29.111 2 0:50.991 0:23.401 5 36.215

Free Practice MX2 – Classification
Pos Nr Rider Nat. Fed. Bike Bestlaptime in lap Diff. First Diff. Prev. Tot. Laps Speed

1 2 Bagget, Blake USA AMA Kawasaki 1:39.675 14 0:00.000 0:00.000 17 54.176
2 8 Roczen, Ken GER DMSB KTM 1:39.745 12 0:00.070 0:00.070 16 54.138
3 20 Musquin, Marvin FRA AMA KTM 1:41.144 18 0:01.469 0:01.399 18 53.389
4 11 Wilson, Dean GBR ACU Kawasaki 1:41.677 12 0:02.002 0:00.533 16 53.109
5 5 Roelants, Joel BEL FMB KTM 1:42.582 13 0:02.907 0:00.905 18 52.641
6 14 Lupino, Alessandro ITA FMI Husqvarna 1:42.638 10 0:02.963 0:00.056 16 52.612
7 35 Rauchenecker, Pascal AUT OeAMTC KTM 1:43.294 16 0:03.619 0:00.656 17 52.278
8 114 Tonkov, Aleksandr RUS FMI Yamaha 1:44.254 13 0:04.579 0:00.960 15 51.797
9 17 Moss, Matt AUS MA KTM 1:44.293 10 0:04.618 0:00.039 15 51.777
10 38 Butron, Jose Antonio ESP RFME KTM 1:44.374 16 0:04.699 0:00.081 17 51.737
11 29 Weeck, Tommy PUR AMA Kawasaki 1:44.470 15 0:04.795 0:00.096 18 51.689
12 32 Seewer, Jeremy SUI FMS Suzuki 1:45.290 12 0:05.615 0:00.820 16 51.287
13 111 Bastemeijer, Donny NED KNMV Honda 1:45.325 4 0:05.650 0:00.035 16 51.27
14 129 Gajser, Tim SLO AMZS KTM 1:45.697 11 0:06.022 0:00.372 16 51.089
15 120 Olsen, Stefan Kjer DEN DMU Yamaha 1:45.788 11 0:06.113 0:00.091 16 51.045
16 41 Söderberg, Ludvig FIN SML Kawasaki 1:45.840 16 0:06.165 0:00.052 17 51.02
17 102 Heibye, Even NOR NMF KTM 1:46.037 16 0:06.362 0:00.197 16 50.926
18 26 Alberto, Paulo POR FMP Suzuki 1:46.097 11 0:06.422 0:00.060 15 50.897
19 44 Rätsep, Priit EST EMF Honda 1:46.342 16 0:06.667 0:00.245 16 50.78
20 59 Edmonds, Stuart IRL MCUI TM 1:46.381 8 0:06.706 0:00.039 15 50.761
21 50 Ivanovs, Davis LAT LAMSF Kawasaki 1:46.457 15 0:06.782 0:00.076 16 50.725
22 65 Bengtsson, Filip SWE SVEMO KTM 1:47.034 17 0:07.359 0:00.577 17 50.451
23 56 Mihara, Takuya JPN MFJ Kawasaki 1:48.645 15 0:08.970 0:01.611 18 49.703
24 117 Terreblance, Shannon RSA MSA Honda 1:48.907 5 0:09.232 0:00.262 11 49.584
25 23 Phillips, John NZL ACU Suzuki 1:49.522 7 0:09.847 0:00.615 15 49.305
26 53 Ferreira de Lima, Eduardo BRA CBM Kawasaki 1:50.221 15 0:10.546 0:00.699 17 48.992
27 123 Karas, Hrvoje CRO HMS Yamaha 1:50.249 13 0:10.574 0:00.028 16 48.98
28 126 Sukup, Marek CZE ACCR Kawasaki 1:51.351 10 0:11.676 0:01.102 15 48.495
29 74 Burenko, Andriy UKR FMU Yamaha 1:51.801 7 0:12.126 0:00.450 13 48.3
30 89 Reynisson, Eythor ISL MSI Suzuki 1:52.709 9 0:13.034 0:00.908 13 47.911
31 83 Rukstela, Nerijus LTU LMSF Suzuki 1:53.218 15 0:13.543 0:00.509 17 47.696
32 68 Badiali, Carlos VEN FMV Honda 1:53.338 11 0:13.663 0:00.120 13 47.645
33 132 Papilas, Panagiotis GRE ELPA Honda 2:00.066 13 0:20.391 0:06.728 16 44.975
34 105 Suksripaisan, Jugkrit THA FMSCT Honda 2:04.537 2 0:24.862 0:04.471 9 43.361
35 108 Yang, Jie CHN CMSA Honda 2:11.995 3 0:32.320 0:07.458 10 40.911
36 135 Alruwaih, Abdullah Hamed KUW KIAC Suzuki 2:49.218 5 1:09.543 0:37.223 5 31.911

Free Practice Open
Pos Nr Rider Nation Bike Bestlaptime in lap Diff. First Diff. Prev. Tot. Laps Lastlaptime Lastlap-2 Lastlap-3

- 1 3 Villopoto, Ryan USA Kawasaki 1:37.907 6 0:00.000 0:00.000 18 1:49.316 1:40.346 1:46.116
- 2 112 Herlings, Jeffrey NED KTM 1:39.342 14 0:01.435 0:01.435 15 4:15.632 1:39.342 2:18.897
- 3 21 Paulin, Gautier FRA Yamaha 1:39.416 13 0:01.509 0:00.074 13 1:39.416 6:49.843 1:40.368
- 4 15 Guarneri, Davide ITA Kawasaki 1:39.518 3 0:01.611 0:00.102 9 2:39.696 2:05.963 1:57.220
- 5 33 Tonus, Arnaud SUI Yamaha 1:39.814 9 0:01.907 0:00.296 15 2:20.474 1:39.850 2:00.799
- 6 30 Albertson, Jimmy PUR Yamaha 1:40.111 17 0:02.204 0:00.297 20 1:48.090 1:45.160 2:48.292
- 7 12 Anderson, Brad GBR Honda 1:40.963 14 0:03.056 0:00.852 15 2:37.530 1:40.963 2:00.829
- 8 118 Swanepoel, Gareth RSA Yamaha 1:41.533 14 0:03.626 0:00.570 17 1:42.592 1:43.251 2:00.327
- 9 6 Strijbos, Kevin BEL Suzuki 1:41.548 17 0:03.641 0:00.015 17 1:41.548 2:23.412 2:45.206
- 10 18 Metcalfe, Brett AUS Suzuki 1:41.911 14 0:04.004 0:00.363 17 1:42.647 1:58.750 4:22.536
- 11 39 Campano, Carlos ESP Yamaha 1:42.396 15 0:04.489 0:00.485 17 1:42.943 2:13.492 1:42.396
- 12 127 Michek, Martin CZE KTM 1:42.618 12 0:04.711 0:00.222 16 2:04.191 2:12.258 2:15.099
- 13 9 Schiffer, Marcus GER Suzuki 1:42.619 9 0:04.712 0:00.001 17 1:48.060 1:45.454 1:45.349
- 14 45 Krestinov, Gert EST Kawasaki 1:42.739 14 0:04.832 0:00.120 17 1:51.163 1:56.052 4:27.849
- 15 54 Balbi JR, Antonio Jorge BRA Kawasaki 1:43.478 15 0:05.571 0:00.739 15 1:43.478 1:57.433 4:05.070
- 16 27 Correia, Luis POR Yamaha 1:44.439 10 0:06.532 0:00.961 16 1:45.250 5:38.928 1:46.213
- 17 121 Lynggaard, Kasper DEN Kawasaki 1:44.638 10 0:06.731 0:00.199 17 2:11.540 1:46.972 5:27.926
- 18 51 Steinbergs, Ivo LAT Kawasaki 1:44.729 7 0:06.822 0:00.091 14 4:29.441 1:52.779 2:07.232
- 19 36 Walkner, Matthias AUT KTM 1:44.943 17 0:07.036 0:00.214 17 1:44.943 3:38.840 1:45.054
- 21 66 Söderström, Tom SWE Suzuki 1:45.412 11 0:07.505 0:00.437 18 3:09.539 1:45.833 2:05.886
- 22 115 Astaykin, Sergey RUS Kawasaki 1:45.511 7 0:07.604 0:00.099 16 1:56.123 1:59.112 1:45.813
- 23 130 Gercar, Klemen SLO KTM 1:45.729 5 0:07.822 0:00.218 16 1:46.893 1:57.208 1:59.520
- 24 57 Arai, Hiroaki JPN Kawasaki 1:46.343 11 0:08.436 0:00.614 16 1:57.392 1:58.734 2:06.982
- 25 42 Eriksson, Toni FIN Kawasaki 1:46.657 8 0:08.750 0:00.314 16 5:15.054 1:47.725 1:58.072
- 26 69 Trasolini, Raimundo VEN Honda 1:47.104 12 0:09.197 0:00.447 13 2:51.760 1:47.104 6:29.325
- 27 103 Gultvedt, Andreas NOR KTM 1:48.196 12 0:10.289 0:01.092 18 1:50.112 2:00.067 1:49.836
- 28 84 Bucas, Vytautas LTU Honda 1:48.996 14 0:11.089 0:00.800 15 2:20.874 1:48.996 1:55.918
- 29 24 Scheele, Kieran NZL Suzuki 1:50.537 13 0:12.630 0:01.541 18 2:18.349 1:52.448 2:03.258
- 30 60 Bird, Richard IRL KTM 1:51.903 12 0:13.996 0:01.366 16 1:55.122 1:51.930 1:53.586
- 31 124 Bozic, Danijel CRO KTM 1:51.924 16 0:14.017 0:00.021 17 4:29.955 1:51.924 2:13.133
- 32 133 Skivalos , Manolis GRE Honda 1:54.363 13 0:16.456 0:02.439 14 2:09.437 1:54.363 2:06.748
- 33 90 Jonsson, Kari ISL TM 1:54.859 7 0:16.952 0:00.496 16 1:59.387 1:56.732 1:58.414
- 34 106 Thangthong, Trakarn THA Yamaha 1:56.330 15 0:18.423 0:01.471 16 2:01.218 1:56.330 2:25.167
- 35 109 Lai, Chi Fung CHN Honda 2:12.281 9 0:34.374 0:15.951 15 3:23.530 2:20.195 2:18.942
- 36 136 Ben-Awadh, Faisal KUW Suzuki 2:32.488 6 0:54.581 0:20.207 8 6:07.560 2:44.092 2:32.488

MANCHE QUALIFICATIVE MX1

Christophe Pourcel aurait chuté sur une botte de paille lors du tour de reconnaissance.. Info’ à confirmer..

Holeshot de Bobryshev, chute en bout de ligne droite pour plusieurs Pilotes..! Dungey passe en tête, Christophe Pourcel 5 Ème.. Cairoli à la lutte avec Dungey..! Pourcel passe Reed pour la 4 Ème place.. Christophe Pourcel passe Bobryshev à 13 min de la fin..

FIM Motocross of Nations – France (race)
# RIDER BIKE TIME GAP PREV GAP FIRST BEST LAP LAST LAPS

1 R. Dungey (1) SUZ 23:46,461 01:37,780 12: 01:39,243 13: 01:39,012 14: 01:38,194
2 A. Cairoli (13) KTM 23:47,769 +00:01,308 +00:01,308 01:38,006 12: 01:39,400 13: 01:38,757 14: 01:38,969
3 C. Pourcel (19) KAW 24:32,886 +00:45,117 +00:46,425 01:38,291 12: 01:47,161 13: 01:46,287 14: 01:48,984
4 C. Reed (16) HON 24:39,239 +00:06,353 +00:52,778 01:40,981 12: 01:42,417 13: 01:43,335 14: 01:45,235
5 T. Rattray (116) KAW 24:41,125 +00:01,886 +00:54,664 01:41,756 12: 01:42,515 13: 01:43,392 14: 01:45,287
6 R. Goncalves (25) HON 24:45,760 +00:04,635 +00:59,299 01:41,124 12: 01:42,904 13: 01:43,636 14: 01:44,554
7 T. Leok (43) TM 24:47,858 +00:02,098 +01:01,397 01:41,579 12: 01:45,815 13: 01:44,697 14: 01:41,872
8 E. Bobryshev (113) HON 24:48,031 +00:00,173 +01:01,570 01:41,290 12: 01:45,618 13: 01:43,925 14: 01:43,224
9 T. Searle (10) KAW 25:15,711 +00:27,680 +01:29,250 01:40,447 12: 01:44,724 13: 01:46,206 14: 01:50,028
10 J. Barragan (37) KAW 25:18,531 +00:02,820 +01:32,070 01:43,467 12: 01:47,154 13: 01:46,862 14: 01:45,291
11 Y. Atsuta (55) SUZ 25:20,715 +00:02,184 +01:34,254 01:44,079 12: 01:46,322 13: 01:48,062 14: 01:48,043
12 A. . . . . . . . . . . Pyrhönen (40) HON 23:49,717 -1 lap -1 lap 01:44,407 11: 01:46,924 12: 01:47,411 13: 01:51,460
13 G. Schmidinger (34) HON 23:54,054 -1 lap -1 lap 01:44,847 11: 01:46,005 12: 01:47,103 13: 01:47,902
14 F. Neugebauer (125) KAW 23:57,058 -1 lap -1 lap 01:44,942 11: 01:47,423 12: 01:48,536 13: 01:46,419
15 M. F. d. Lima (52) KAW 23:58,497 -1 lap -1 lap 01:45,160 11: 01:47,887 12: 01:49,225 13: 01:47,169
16 M. V. Daele (4) HON 23:58,754 -1 lap -1 lap 01:44,835 11: 01:45,945 12: 01:46,727 13: 01:45,502
17 M. Barr (58) KTM 24:03,554 -1 lap -1 lap 01:44,387 11: 01:46,247 12: 01:44,826 13: 01:46,208
18 H. Brakke (110) YAM 24:12,612 -1 lap -1 lap 01:46,175 11: 01:48,838 12: 01:48,455 13: 01:48,780
19 D. Siegl (7) KTM 24:14,533 -1 lap -1 lap 01:45,831 11: 01:49,004 12: 01:47,535 13: 01:47,133
20 N. Hansen (119) SUZ 24:19,849 -1 lap -1 lap 01:47,763 11: 01:48,451 12: 01:47,955 13: 01:48,438
21 L. Freibergs (49) HON 24:21,042 -1 lap -1 lap 01:46,328 11: 01:46,676 12: 01:47,508 13: 01:47,105
22 T. Mulec (128) SUZ 24:41,782 -1 lap -1 lap 01:48,191 11: 01:52,054 12: 01:50,824 13: 01:51,069
23 N. Sipek (122) YAM 24:44,242 -1 lap -1 lap 01:48,519 11: 01:51,022 12: 01:50,580 13: 01:53,270
24 Y. Furlato (31) KAW 25:00,154 -1 lap -1 lap 01:48,571 11: 01:53,421 12: 01:54,036 13: 01:52,146
25 A. Gelazninkas (82) KAW 25:13,942 -1 lap -1 lap 01:49,334 11: 01:53,530 12: 01:53,391 13: 01:54,230
26 J. Doeksen (22) KTM 25:30,181 -1 lap -1 lap 01:50,554 11: 01:56,211 12: 01:55,197 13: 01:54,306
27 H. Martin (67) HON 25:38,953 -1 lap -1 lap 01:50,977 11: 01:52,737 12: 01:53,813 13: 01:57,791
28 V. Gudbergsson (88) SUZ 23:53,174 -2 laps -2 laps 01:52,778 10: 01:56,504 11: 01:58,018 12: 01:57,270
29 V. Siafarikas (131) HON 25:43,690 -2 laps -2 laps 01:58,817 10: 02:10,297 11: 01:58,817 12: 01:59,890
30 A. Ruadreo (104) YAM 25:52,014 -2 laps -2 laps 01:59,120 10: 02:09,535 11: 02:03,740 12: 02:07,126
31 L. M. Grana (28) YAM 23:46,570 -3 laps -3 laps 01:59,144 9: 02:08,259 10: 02:04,595 11: 02:06,827


MANCHE QUALIFICATIVE MX2

Holeshot de Blake Baggett..! Marvin Musquin 6 Ème.. Roczen passe second quelques minutes plus tard.. Musquin 4 Ème à 15 mn.. Ken Roczen commet une faute, Musquin passe second..! Dean Wilson passe 3 Ème à 13 min de la fin.. Wilson revient sur Marvin.. Dean Wilson va commettre quelques petites fautes tout au long de la fin de manche.. Ken Roczen a failli passer Wilson lors du dernier tour..

FIM Motocross of Nations – France (race)
# RIDER BIKE TIME GAP PREV GAP FIRST BEST LAP LAST LAPS

1 B. Bagget (2) KAW 24:45,804 01:41,990 12: 01:44,518 13: 01:43,960 14: 01:47,617
2 M. Musquin (20) KTM 24:54,680 +00:08,876 +00:08,876 01:42,593 12: 01:44,709 13: 01:44,818 14: 01:45,836
3 D. Wilson (11) KAW 24:57,135 +00:02,455 +00:11,331 01:41,633 12: 01:43,865 13: 01:44,762 14: 01:44,779
4 K. Roczen (8) KTM 24:57,546 +00:00,411 +00:11,742 01:42,701 12: 01:43,307 13: 01:43,638 14: 01:43,945
5 J. Roelants (5) KTM 25:20,847 +00:23,301 +00:35,043 01:43,153 12: 01:46,045 13: 01:47,006 14: 01:49,220
6 A. Lupino (14) HUS 25:41,054 +00:20,207 +00:55,250 01:44,787 12: 01:47,700 13: 01:47,988 14: 01:50,743
7 P. Rauchenecker (35) KTM 25:42,953 +00:01,899 +00:57,149 01:43,829 12: 01:48,908 13: 01:49,735 14: 01:48,261
8 S. K. Olsen (120) YAM 25:55,195 +00:12,242 +01:09,391 01:46,082 12: 01:49,113 13: 01:49,561 14: 01:50,946
9 J. A. Butron (38) KTM 26:01,347 +00:06,152 +01:15,543 01:47,059 12: 01:49,216 13: 01:48,258 14: 01:49,855
10 S. Edmonds (59) TM 26:02,554 +00:01,207 +01:16,750 01:46,232 12: 01:50,749 13: 01:49,156 14: 01:49,356
11 D. Bastemeijer (111) HON 26:04,031 +00:01,477 +01:18,227 01:46,601 12: 01:49,165 13: 01:49,586 14: 01:49,980
12 J. Seewer (32) SUZ 26:05,234 +00:01,203 +01:19,430 01:46,991 12: 01:48,970 13: 01:50,233 14: 01:49,189
13 T. Gajser (129) KTM 26:12,199 +00:06,965 +01:26,395 01:47,297 12: 01:51,250 13: 01:50,101 14: 01:51,905
14 A. Tonkov (114) YAM 26:16,730 +00:04,531 +01:30,926 01:47,119 12: 01:49,082 13: 01:50,160 14: 01:49,052
15 P. Rätsep (44) HON 26:18,023 +00:01,293 +01:32,219 01:47,881 12: 01:48,760 13: 01:48,955 14: 01:49,377
16 L. Söderberg (41) KAW 26:18,264 +00:00,241 +01:32,460 01:48,192 12: 01:50,393 13: 01:50,037 14: 01:49,413
17 E. F. d. Lima (53) KAW 26:19,508 +00:01,244 +01:33,704 01:48,039 12: 01:48,515 13: 01:48,629 14: 01:49,404
18 E. Heibye (102) KTM 26:20,470 +00:00,962 +01:34,666 01:47,335 12: 01:50,777 13: 01:49,181 14: 01:49,197
19 P. Alberto (26) SUZ 26:24,913 +00:04,443 +01:39,109 01:47,581 12: 01:50,235 13: 01:50,221 14: 01:48,973
20 D. Ivanovs (50) KAW 26:26,756 +00:01,843 +01:40,952 01:48,179 12: 01:50,703 13: 01:49,666 14: 01:52,188
21 T. Mihara (56) KAW 24:48,220 -1 lap -1 lap 01:47,440 11: 01:51,902 12: 01:51,001 13: 01:56,687
22 F. Bengtsson (65) KTM 25:08,904 -1 lap -1 lap 01:50,226 11: 01:53,509 12: 01:56,265 13: 01:55,779
23 J. Phillips (23) SUZ 25:13,302 -1 lap -1 lap 01:48,560 11: 01:53,993 12: 01:52,459 13: 01:51,640
24 M. Sukup (126) KAW 25:25,925 -1 lap -1 lap 01:49,191 11: 01:57,481 12: 01:55,599 13: 01:59,135
25 H. Karas (123) YAM 25:30,097 -1 lap -1 lap 01:51,608 11: 01:55,308 12: 01:55,099 13: 01:55,460
26 T. Weeck (29) KAW 25:55,594 -1 lap -1 lap 01:44,215 11: 01:51,313 12: 01:54,274 13: 02:02,854
27 A. Burenko (74) YAM 26:08,423 -1 lap -1 lap 01:52,180 11: 01:59,873 12: 02:02,664 13: 02:01,391
28 C. Badiali (68) HON 25:05,659 -2 laps -2 laps 01:49,771 10: 02:17,690 11: 01:58,801 12: 02:00,496
29 E. Reynisson (89) SUZ 25:23,513 -2 laps -2 laps 01:53,287 10: 02:03,985 11: 02:04,764 12: 02:05,350
30 P. Papilas (132) HON 25:33,918 -2 laps -2 laps 01:58,806 10: 02:00,879 11: 02:08,835 12: 02:04,416
31 M. Moss (17) KTM 25:44,000 -2 laps -2 laps 01:46,567 10: 01:47,420 11: 01:46,861 12: 01:46,829
32 J. Yang (108) HON 24:35,908 -3 laps -3 laps 02:01,146 9: 02:18,484 10: 02:10,124 11: 02:15,257
33 N. Rukstela (83) SUZ 26:19,116 -3 laps -3 laps 01:54,535 9: 02:04,370 10: 02:11,872 11: 02:09,485
34 A. H. Alruwaih (135) SUZ 25:48,335 -5 laps -5 laps 02:37,512 7: 02:44,140 8: 02:48,509 9: 02:51,733
35 J. Suksripaisan (105) HON 17:24,290 -8 laps -8 laps 01:59,274 4: 02:15,715 5: 02:28,366 6: 02:45,749
36 S. Terreblance (117) HON 04:49,472 -12 laps -12 laps 01:59,714 1: 02:08,818 2: 01:59,714


MANCHE QUALIFICATIVE OPEN

Holeshot de Villopoto, Gautier Paulin second..! Guarneri 3 Ème reste au contact de Gautier.. Strijbos revient comme une bombe à 9 min de la fin.. Guarneri passe Gautier Paulin à 3 min de la fin..!

FIM Motocross of Nations – France (race)
# RIDER BIKE TIME GAP PREV GAP FIRST BEST LAP LAST LAPS

1 R. Villopoto (3) KAW 24:46,792 01:41,083 12: 01:46,972 13: 01:46,124 14: 01:48,238
2 D. Guarneri (15) KAW 24:54,496 +00:07,704 +00:07,704 01:42,484 12: 01:46,857 13: 01:45,146 14: 01:45,097
3 G. Paulin (21) YAM 24:55,500 +00:01,004 +00:08,708 01:43,174 12: 01:46,840 13: 01:44,538 14: 01:44,633
4 K. Strijbos (6) SUZ 24:56,469 +00:00,969 +00:09,677 01:42,404 12: 01:46,861 13: 01:44,931 14: 01:44,640
5 B. Metcalfe (18) SUZ 24:57,962 +00:01,493 +00:11,170 01:42,379 12: 01:46,511 13: 01:45,624 14: 01:44,408
6 G. Swanepoel (118) YAM 25:11,641 +00:13,679 +00:24,849 01:43,101 12: 01:44,814 13: 01:46,058 14: 01:48,380
7 J. Herlings (112) KTM 25:12,830 +00:01,189 +00:26,038 01:42,865 12: 01:45,741 13: 01:46,421 14: 01:47,557
8 A. Tonus (33) YAM 25:30,125 +00:17,295 +00:43,333 01:43,489 12: 01:50,325 13: 01:50,780 14: 01:49,273
9 C. Campano (39) YAM 25:32,339 +00:02,214 +00:45,547 01:44,246 12: 01:46,198 13: 01:47,464 14: 01:46,328
10 M. Michek (127) KTM 25:39,753 +00:07,414 +00:52,961 01:45,496 12: 01:47,876 13: 01:48,099 14: 01:48,837
11 L. Correia (27) YAM 25:41,190 +00:01,437 +00:54,398 01:45,403 12: 01:45,403 13: 01:47,250 14: 01:46,831
12 B. Anderson (12) HON 25:43,645 +00:02,455 +00:56,853 01:44,857 12: 01:46,224 13: 01:46,887 14: 01:48,180
13 G. Krestinov (45) KAW 25:46,846 +00:03,201 +01:00,054 01:45,870 12: 01:47,172 13: 01:47,320 14: 01:47,537
14 J. Albertson (30) YAM 25:49,583 +00:02,737 +01:02,791 01:44,114 12: 01:46,391 13: 01:45,759 14: 01:45,468
15 H. Arai (57) KAW 25:56,897 +00:07,314 +01:10,105 01:46,048 12: 01:48,538 13: 01:48,624 14: 01:48,495
16 A. J. B. JR (54) KAW 26:06,024 +00:09,127 +01:19,232 01:45,942 12: 01:48,682 13: 01:48,328 14: 01:52,120
17 I. Steinbergs (51) KAW 26:08,373 +00:02,349 +01:21,581 01:47,494 12: 01:49,672 13: 01:50,775 14: 01:48,321
18 K. Lynggaard (121) KAW 26:10,257 +00:01,884 +01:23,465 01:48,052 12: 01:50,438 13: 01:50,657 14: 01:50,817
19 T. Söderström (66) SUZ 26:11,773 +00:01,516 +01:24,981 01:46,141 12: 01:51,170 13: 01:48,796 14: 01:48,554
20 S. Astaykin (115) KAW 26:12,296 +00:00,523 +01:25,504 01:46,365 12: 01:46,365 13: 01:48,394 14: 01:47,038
21 M. Schiffer (9) SUZ 26:19,319 +00:07,023 +01:32,527 01:45,989 12: 01:48,452 13: 01:48,391 14: 01:51,135
22 K. Gercar (130) KTM 26:34,500 +00:15,181 +01:47,708 01:48,621 12: 01:50,807 13: 01:49,683 14: 01:52,317
23 M. Walkner (36) KTM 24:47,811 -1 lap -1 lap 01:48,049 11: 01:48,261 12: 01:48,528 13: 01:50,176
25 T. Eriksson (42) KAW 25:06,682 -1 lap -1 lap 01:48,886 11: 01:50,981 12: 01:56,041 13: 01:50,756
26 V. Bucas (84) HON 25:10,625 -1 lap -1 lap 01:49,903 11: 01:53,278 12: 01:55,252 13: 01:50,390
27 A. Gultvedt (103) KTM 25:11,996 -1 lap -1 lap 01:49,645 11: 01:53,187 12: 01:53,562 13: 01:52,349
28 K. Scheele (24) SUZ 25:17,219 -1 lap -1 lap 01:51,055 11: 01:54,490 12: 01:53,229 13: 01:55,484
29 R. Bird (60) KTM 25:22,303 -1 lap -1 lap 01:51,219 11: 01:56,294 12: 01:53,617 13: 01:56,644
30 K. Jonsson (90) TM 26:00,933 -1 lap -1 lap 01:54,356 11: 01:57,711 12: 01:58,807 13: 01:58,026
31 T. Thangthong (106) YAM 26:35,853 -1 lap -1 lap 01:54,329 11: 02:04,958 12: 02:08,371 13: 02:02,953
32 M. S. (133) HON 26:43,126 -1 lap -1 lap 01:55,784 11: 02:03,057 12: 02:00,819 13: 02:01,342
33 D. Bozic (124) KTM 25:50,549 -2 laps -2 laps 01:59,072 10: 02:09,520 11: 01:59,885 12: 02:10,437
34 C. F. Lai (109) HON 25:15,805 -3 laps -3 laps 02:07,774 9: 02:13,488 10: 02:11,426 11: 02:20,271
35 F. Ben-Awadh (136) SUZ 26:37,181 -4 laps -4 laps 02:24,855 8: 02:31,352 9: 02:33,763 10: 02:28,037
36 R. Trasolini (69) HON 13:32,829 -8 laps -8 laps 01:53,796 4: 01:53,796 5: 01:54,024 6: 03:08,301


DIMANCHE

Warm up Group 1 – Classification
Pos Nr Rider Nat. Fed. Bike Bestlaptime in lap Diff. First Diff. Prev. Tot. Laps Speed
1 21 Paulin, Gautier FRA MCM Yamaha 1:48.612 6 0:00.000 0:00.000 7 49.718
2 20 Musquin, Marvin FRA AMA KTM 1:49.980 7 0:01.368 0:01.368 9 49.
1
3 3 Villopoto, Ryan USA AMA Kawasaki 1:50.093 4 0:01.481 0:00.113 8 49.049
4 43 Leok, Tanel EST EMF TM 1:50.594 3 0:01.982 0:00.501 6 48.827
5 1 Dungey, Ryan USA AMA Suzuki 1:50.646 9 0:02.034 0:00.052 10 48.804
6 113 Bobryshev, Evgeny RUS MFR Honda 1:50.786 5 0:02.174 0:00.140 7 48.743
7 11 Wilson, Dean GBR ACU Kawasaki 1:51.772 7 0:03.160 0:00.986 8 48.313
8 37 Barragan, Jonathan ESP RFME Kawasaki 1:52.434 8 0:03.822 0:00.662 9 48.028
9 18 Metcalfe, Brett AUS MA Suzuki 1:52.717 5 0:04.105 0:00.283 9 47.908
10 16 Reed, Chad AUS MA Honda 1:53.266 2 0:04.654 0:00.549 8 47.675
11 17 Moss, Matt AUS MA KTM 1:54.030 5 0:05.418 0:00.764 6 47.356
12 10 Searle, Tommy GBR ACU Kawasaki 1:54.672 6 0:06.060 0:00.642 9 47.091
13 2 Baggett, Blake USA AMA Kawasaki 1:55.203 7 0:06.591 0:00.531 9 46.874
14 12 Anderson, Brad GBR ACU Honda 1:55.212 8 0:06.600 0:00.009 8 46.87
15 114 Tonkov, Aleksandr RUS FMI Yamaha 1:55.252 5 0:06.640 0:00.040 8 46.854
16 119 Hansen, Nicolai DEN DMU Suzuki 1:56.060 8 0:07.448 0:00.808 9 46.528
17 127 Michek, Martin CZE ACCR KTM 1:56.295 8 0:07.683 0:00.235 8 46.434
18 45 Krestinov, Gert EST EMF Kawasaki 1:56.895 7 0:08.283 0:00.600 7 46.195
19 40 Pyrhönen, Antti FIN SML Honda 1:57.300 4 0:08.688 0:00.405 8 46.036
20 125 Neugebauer, Filip CZE DMSB Kawasaki 1:57.308 7 0:08.696 0:00.008 8 46.033
21 39 Campano, Carlos ESP RFME Yamaha 1:57.667 5 0:09.055 0:00.359 7 45.892
22 44 Rätsep, Priit EST EMF Honda 1:58.076 4 0:09.464 0:00.409 9 45.733
23 38 Butron, Jose Antonio ESP RFME KTM 1:58.142 5 0:09.530 0:00.066 8 45.708
24 121 Lynggaard, Kasper DEN DMU Kawasaki 1:58.429 7 0:09.817 0:00.287 8 45.597
25 115 Astaykin, Sergey RUS MFR Kawasaki 1:59.632 7 0:11.020 0:01.203 8 45.138
26 41 Söderberg, Ludvig FIN SML Kawasaki 1:59.731 5 0:11.119 0:00.099 8 45.101
27 120 Olsen, Stefan Kjer DEN DMU Yamaha 2:00.056 8 0:11.444 0:00.325 8 44.979
28 42 Eriksson, Toni FIN SML Kawasaki 2:03.528 3 0:14.916 0:03.472 8 43.715
29 126 Sukup, Marek CZE ACCR Kawasaki 2:04.787 2 0:16.175 0:01.259 6 43.274
30 19 Pourcel, Christophe FRA FFM Kawasaki 2:12.810 1 0:24.198 0:08.023 6 40.66

Warm up Group 2 – Classification
Pos Nr Rider Nat. Fed. Bike Bestlaptime in lap Diff. First Diff. Prev. Tot. Laps Speed

1 6 Strijbos, Kevin BEL FMB Suzuki 1:51.533 6 0:00.000 0:00.000 10 48.416
2 116 Rattray, Tyla RSA MSA Kawasaki 1:51.769 8 0:00.236 0:00.236 10 48.314
3 9 Schiffer, Marcus GER DMSB Suzuki 1:51.930 6 0:00.397 0:00.161 9 48.244
4 8 Roczen, Ken GER DMSB KTM 1:51.965 8 0:00.432 0:00.035 8 48.229
5 14 Lupino, Alessandro ITA FMI Husqvarna 1:52.228 6 0:00.695 0:00.263 6 48.116
6 112 Herlings, Jeffrey NED KNMV KTM 1:52.368 8 0:00.835 0:00.140 8 48.056
7 25 Goncalves, Rui POR FMP Honda 1:52.402 9 0:00.869 0:00.034 9 48.042
8 33 Tonus, Arnaud SUI FMS Yamaha 1:53.254 4 0:01.721 0:00.852 9 47.68
9 5 Roelants, Joel BEL FMB KTM 1:53.420 9 0:01.887 0:00.166 10 47.611
10 35 Rauchenecker, Pascal AUT OeAMTC KTM 1:53.774 7 0:02.241 0:00.354 9 47.463
11 118 Swanepoel, Gareth RSA AMA Yamaha 1:54.358 8 0:02.825 0:00.584 9 47.22
12 32 Seewer, Jeremy SUI FMS Suzuki 1:55.679 8 0:04.146 0:01.321 8 46.681
13 7 Siegl, Daniel GER DMSB KTM 1:56.561 7 0:05.028 0:00.882 8 46.328
14 34 Schmidinger, Günter AUT OeAMTC Honda 1:56.681 8 0:05.148 0:00.120 8 46.28
15 110 Brakke, Herjan NED KNMV Yamaha 1:56.867 9 0:05.334 0:00.186 9 46.206
16 15 Guarneri, Davide ITA FMI Kawasaki 1:56.880 6 0:05.347 0:00.013 7 46.201
17 36 Walkner, Matthias AUT OeAMTC KTM 1:57.215 8 0:05.682 0:00.335 9 46.069
18 13 Cairoli, Antonio ITA FMI KTM 1:57.215 4 0:05.682 0:00.000 4 46.069
19 117 Terreblance, Shannon RSA MSA Honda 1:57.845 7 0:06.312 0:00.630 8 45.823
20 55 Atsuta, Yoshitaka JPN MFJ Suzuki 1:58.152 8 0:06.619 0:00.307 9 45.704
21 4 Van Daele, Marvin BEL FMB Honda 1:58.287 9 0:06.754 0:00.135 9 45.652
22 111 Bastemeijer, Donny NED KNMV Honda 1:58.618 8 0:07.085 0:00.331 10 45.524
23 57 Arai, Hiroaki JPN MFJ Kawasaki 1:59.789 8 0:08.256 0:01.171 9 45.079
24 56 Mihara, Takuya JPN MFJ Kawasaki 2:00.372 8 0:08.839 0:00.583 9 44.861
25 27 Correia, Luis POR FMP Yamaha 2:01.289 4 0:09.756 0:00.917 8 44.522
26 31 Furlato, Yves SUI FMS Kawasaki 2:01.392 7 0:09.859 0:00.103 7 44.484
27 26 Alberto, Paulo POR FMP Suzuki 2:04.376 8 0:12.843 0:02.984 8 43.417

1 ÈRE MANCHE (MX1 + MX2)

Holeshot de Chad Reed, chute de Cairoli.. Musquin 16 Ème, Pourcel 11 Ème.. Dungey passe Bobryshev.. Bobryshev le repasse, Cairoli rechute et casse son guidon..! Roczen revient sur Dungey, Dungey repasse Bobryshev..! Searle revient fort.. Chute de Lupino pour l’Italie à 17 min de la fin.! Roczen passe 3 Ème à 15 min de la fin..! La pluie est de retour.. Christophe Pourcel a du repasseer dans les stands pour changer de lunettes à 8 min..! Ken Roczen passe second..! Le soleil est de retour.. Chute de Blake Baggett à 4 min de la fin..! Problème technique pour Bobryshev à 1 min +2 tours de la fin..

FIM Motocross of Nations – France (race)
# RIDER BIKE TIME GAP PREV GAP FIRST BEST LAP LAST LAPS

1 C. Reed (16) HON 35:52,640 01:44,129 17: 01:57,967 18: 02:05,065 19: 02:01,013
2 K. Roczen (8) KTM 35:56,125 +00:03,485 +00:03,485 01:45,384 17: 01:58,193 18: 02:01,034 19: 02:01,475
3 R. Dungey (1) SUZ 35:57,559 +00:01,434 +00:04,919 01:44,086 17: 01:57,490 18: 02:01,635 19: 02:01,265
4 T. Searle (10) KAW 36:14,109 +00:16,550 +00:21,469 01:45,577 17: 01:58,637 18: 02:01,179 19: 02:03,760
5 T. Rattray (116) KAW 36:23,485 +00:09,376 +00:30,845 01:46,057 17: 01:59,428 18: 02:00,334 19: 01:59,299
6 T. Leok (43) TM 36:25,510 +00:02,025 +00:32,870 01:46,808 17: 01:58,641 18: 02:01,338 19: 01:58,762
7 J. Barragan (37) KAW 36:30,918 +00:05,408 +00:38,278 01:46,627 17: 01:59,963 18: 02:00,402 19: 02:03,000
8 M. Musquin (20) KTM 36:36,682 +00:05,764 +00:44,042 01:46,818 17: 02:02,743 18: 02:01,077 19: 02:02,148
9 D. Wilson (11) KAW 36:50,314 +00:13,632 +00:57,674 01:46,668 17: 02:01,111 18: 02:02,968 19: 02:01,235
10 J. Roelants (5) KTM 36:51,124 +00:00,810 +00:58,484 01:46,865 17: 02:02,757 18: 02:01,368 19: 02:00,789
11 C. Pourcel (19) KAW 37:13,775 +00:22,651 +01:21,135 01:46,290 17: 02:04,022 18: 02:05,013 19: 02:14,895
12 R. Goncalves (25) HON 37:21,266 +00:07,491 +01:28,626 01:47,906 17: 02:05,338 18: 02:04,922 19: 02:07,195
13 Y. Atsuta (55) SUZ 35:36,435 -1 lap -1 lap 01:49,036 16: 02:04,508 17: 02:04,028 18: 02:08,023
14 A. . . . . . . . . . . Pyrhönen (40) HON 35:54,463 -1 lap -1 lap 01:50,314 16: 02:04,424 17: 02:06,992 18: 02:10,611
15 F. Neugebauer (125) KAW 35:57,877 -1 lap -1 lap 01:49,617 16: 02:03,801 17: 02:07,073 18: 02:12,210
16 M. V. Daele (4) HON 35:57,899 -1 lap -1 lap 01:51,189 16: 02:02,946 17: 02:05,200 18: 02:12,929
17 B. Baggett (2) KAW 36:01,178 -1 lap -1 lap 01:46,597 16: 02:00,663 17: 02:02,977 18: 02:13,531
18 P. Rätsep (44) HON 36:05,681 -1 lap -1 lap 01:49,091 16: 02:08,375 17: 02:13,182 18: 02:05,448
19 M. Moss (17) KTM 36:08,595 -1 lap -1 lap 01:52,372 16: 02:11,299 17: 02:02,728 18: 02:05,307
20 J. Seewer (32) SUZ 36:31,888 -1 lap -1 lap 01:51,636 16: 02:07,525 17: 02:09,454 18: 02:10,608
21 M. Barr (58) KTM 36:47,338 -1 lap -1 lap 01:50,565 16: 02:10,313 17: 02:03,289 18: 02:04,149
22 N. Hansen (119) SUZ 36:49,149 -1 lap -1 lap 01:52,483 16: 02:11,980 17: 02:07,759 18: 02:07,711
23 D. Bastemeijer (111) HON 36:59,126 -1 lap -1 lap 01:52,110 16: 02:07,111 17: 02:09,408 18: 02:06,612
24 S. Terreblance (117) HON 37:00,233 -1 lap -1 lap 01:52,708 16: 02:08,456 17: 02:09,586 18: 02:07,322
25 S. K. Olsen (120) YAM 37:04,087 -1 lap -1 lap 01:52,917 16: 02:07,237 17: 02:09,412 18: 02:09,522
26 S. Edmonds (59) TM 37:05,590 -1 lap -1 lap 01:54,395 16: 02:09,048 17: 02:06,556 18: 02:09,480
27 P. Rauchenecker (35) KTM 37:12,409 -1 lap -1 lap 01:52,317 16: 02:14,003 17: 02:08,675 18: 02:22,832
28 D. Siegl (7) KTM 37:26,092 -1 lap -1 lap 01:52,087 16: 02:02,849 17: 02:21,842 18: 02:13,028
29 H. Brakke (110) YAM 37:36,439 -1 lap -1 lap 01:51,215 16: 02:09,734 17: 02:10,462 18: 02:10,929
30 P. Alberto (26) SUZ 37:37,460 -1 lap -1 lap 01:54,789 16: 02:07,092 17: 02:09,756 18: 02:07,278
31 T. Mihara (56) KAW 35:28,084 -2 laps -2 laps 01:54,616 15: 02:12,723 16: 02:08,915 17: 02:11,121
32 Y. Furlato (31) KAW 35:46,729 -2 laps -2 laps 01:55,197 15: 02:10,983 16: 02:13,076 17: 02:15,073
33 L. Söderberg (41) KAW 36:16,996 -2 laps -2 laps 01:54,019 15: 02:18,422 16: 02:20,565 17: 02:24,919
34 E. Bobryshev (113) HON 28:22,154 -4 laps -4 laps 01:45,902 13: 01:56,633 14: 01:57,992 15: 01:58,617
35 M. Sukup (126) KAW 36:20,100 -8 laps -8 laps 01:59,724 9: 02:12,062 10: 02:24,355 11: 14:31,165
36 J. A. Butron (38) KTM 19:44,280 -9 laps -9 laps 01:50,995 8: 01:51,587 9: 01:53,828 10: 02:00,946
37 A. Tonkov (114) YAM 16:06,623 -11 laps -11 laps 01:52,925 6: 01:53,406 7: 01:53,051 8: 01:54,275
38 G. Schmidinger (34) HON 16:22,362 -11 laps -11 laps 01:52,378 6: 01:52,637 7: 01:56,341 8: 02:01,836
39 A. Lupino (14) HUS 12:04,912 -13 laps -13 laps 01:51,377 4: 01:51,638 5: 01:53,032 6: 01:51,377
40 A. Cairoli (13) KTM 04:33,780 -17 laps -17 laps 01:50,719 1: 01:54,150 2: 01:50,719

2 ÈME MANCHE (MX2 + Open)

Holeshot de Gautier Paulin..! Villopoto 13 Ème.. La pluie est de retour.. Herlings, Roczen et Paulin.. Gautier passe Roczen.! Baggett 11 Ème, Musquin 14 Ème..! Villopoto revient fort.. Dean Wilson rencontre des problèmes à 20 mn de la fin.. Gautier passe Herlings à 19 min..! Blake Baggett en difficultés.. Herlings revient fort à 12 min, Villopoto pratique son effort.. Chute de Marvin Musquin à 10 min de la fin..! Villopoto passe Roczen à 6 min..! Grosse chute de Lupino..Ken Roczen repasse Villopoto.. Musquin 12 Ème.. LA FRANCE EN TÊTE..!!!

1° France 31 points, 2° USA 40 pts 3° Belgique 43 pts 4° Allemagne 47 pts 5° Angleterre 54 pts..

FIM Motocross of Nations – France (race)
# RIDER BIKE TIME GAP PREV GAP FIRST BEST LAP LAST LAPS
1 G. Paulin (21) YAM 34:14,392 01:50,082 16: 01:53,158 17: 01:50,896 18: 01:50,082

2 J. Herlings (112) KTM 34:16,816 +00:02,424 +00:02,424 01:49,937 16: 01:53,317 17: 01:51,026 18: 01:49,937
3 R. Villopoto (3) KAW 34:17,205 +00:00,389 +00:02,813 01:49,734 16: 01:50,020 17: 01:50,594 18: 01:49,734
4 K. Roczen (8) KTM 34:19,489 +00:02,284 +00:05,097 01:50,056 16: 01:53,073 17: 01:51,229 18: 01:50,277
5 K. Strijbos (6) SUZ 34:33,673 +00:14,184 +00:19,281 01:51,404 16: 01:53,139 17: 01:53,063 18: 01:54,967
6 G. Swanepoel (118) YAM 34:59,795 +00:26,122 +00:45,403 01:51,845 16: 01:55,013 17: 01:56,550 18: 01:51,845
7 B. Metcalfe (18) SUZ 35:00,306 +00:00,511 +00:45,914 01:51,687 16: 01:54,981 17: 01:52,902 18: 01:51,687
8 D. Guarneri (15) KAW 35:11,138 +00:10,832 +00:56,746 01:52,831 16: 01:53,593 17: 01:57,453 18: 01:55,160
9 C. Campano (39) YAM 35:12,265 +00:01,127 +00:57,873 01:53,503 16: 01:54,640 17: 01:59,233 18: 01:54,758
10 A. Tonus (33) YAM 35:21,675 +00:09,410 +01:07,283 01:53,237 16: 01:56,586 17: 01:53,996 18: 01:53,237
11 M. Musquin (20) KTM 35:23,192 +00:01,517 +01:08,800 01:51,998 16: 01:55,754 17: 01:52,156 18: 01:53,640
12 J. Roelants (5) KTM 35:24,618 +00:01,426 +01:10,226 01:54,056 16: 01:56,155 17: 01:54,415 18: 01:54,765
13 M. Schiffer (9) SUZ 35:44,003 +00:19,385 +01:29,611 01:55,412 16: 01:56,749 17: 01:56,443 18: 01:55,412
14 B. Anderson (12) HON 35:48,875 +00:04,872 +01:34,483 01:53,882 16: 01:54,125 17: 01:53,882 18: 01:56,385
15 L. Correia (27) YAM 35:50,963 +00:02,088 +01:36,571 01:55,240 16: 01:55,331 17: 01:55,704 18: 01:56,851
16 M. Michek (127) KTM 34:19,136 -1 lap -1 lap 01:55,852 15: 01:58,587 16: 01:58,640 17: 02:01,222
17 B. Baggett (2) KAW 34:32,826 -1 lap -1 lap 01:53,685 15: 01:57,380 16: 02:01,070 17: 01:57,044
18 A. Tonkov (114) YAM 34:39,847 -1 lap -1 lap 01:56,510 15: 02:02,807 16: 01:59,229 17: 02:01,493
19 J. A. Butron (38) KTM 34:45,248 -1 lap -1 lap 01:57,829 15: 02:01,044 16: 02:10,785 17: 01:58,190
20 M. Walkner (36) KTM 34:45,737 -1 lap -1 lap 01:58,235 15: 01:58,443 16: 01:59,989 17: 01:58,235
21 D. Bastemeijer (111) HON 34:52,839 -1 lap -1 lap 01:58,001 15: 02:01,069 16: 01:59,948 17: 01:59,898
22 G. Krestinov (45) KAW 34:54,129 -1 lap -1 lap 01:57,636 15: 01:58,896 16: 02:00,271 17: 01:59,418
23 H. Arai (57) KAW 34:57,988 -1 lap -1 lap 01:57,556 15: 02:00,103 16: 01:59,828 17: 02:00,179
24 S. Terreblance (117) HON 35:18,512 -1 lap -1 lap 01:59,401 15: 01:59,810 16: 02:07,014 17: 02:01,955
25 K. Lynggaard (121) KAW 35:26,384 -1 lap -1 lap 01:59,162 15: 02:03,501 16: 02:04,095 17: 02:06,020
26 S. Edmonds (59) TM 35:28,507 -1 lap -1 lap 01:57,482 15: 02:06,685 16: 02:04,751 17: 02:05,936
27 D. Wilson (11) KAW 35:37,949 -1 lap -1 lap 01:54,774 15: 02:01,502 16: 02:01,956 17: 02:10,190
28 S. Astaykin (115) KAW 35:40,154 -1 lap -1 lap 01:58,506 15: 02:14,136 16: 02:01,272 17: 02:00,270
29 L. Söderberg (41) KAW 35:45,838 -1 lap -1 lap 01:59,221 15: 02:05,088 16: 01:59,221 17: 02:02,266
30 S. K. Olsen (120) YAM 35:46,454 -1 lap -1 lap 01:59,967 15: 02:05,918 16: 02:02,795 17: 02:01,553
31 T. Mihara (56) KAW 33:53,689 -2 laps -2 laps 01:58,599 14: 02:06,511 15: 02:03,505 16: 02:04,235
32 T. Eriksson (42) KAW 33:57,840 -2 laps -2 laps 01:59,936 14: 02:02,168 15: 02:02,947 16: 02:04,268
33 P. Alberto (26) SUZ 35:21,106 -2 laps -2 laps 02:00,655 14: 02:05,502 15: 02:09,688 16: 02:04,193
34 P. Rätsep (44) HON 30:30,909 -3 laps -3 laps 01:55,904 13: 01:58,061 14: 02:11,171 15: 02:04,617
35 R. Bird (60) KTM 34:40,786 -4 laps -4 laps 02:06,431 12: 02:13,165 13: 02:12,175 14: 02:18,980
36 A. Lupino (14) HUS 24:24,290 -6 laps -6 laps 01:55,488 10: 01:57,250 11: 01:58,365 12: 01:59,709
37 J. Seewer (32) SUZ 18:22,849 -10 laps -10 laps 01:56,634 6: 01:59,149 7: 01:57,322 8: 01:56,634
38 P. Rauchenecker (35) KTM 15:04,514 -11 laps -11 laps 01:57,338 5: 02:05,571 6: 02:02,247 7: 02:01,923

3 ÈME MANCHE (MX1 + OPEN)

Holeshot de Bobryshev..! Christophe Pourcel 4 Ème.. Villopoto passe en tête..! Paulin 7 Ème.. Petite chute de Villopoto..! Pourcel passe Dungey..! Abandon de Cairoli.. Chute de Christophe Pourcel qui abandonne à 23 min suite à un problème de pneu..!! Villopoto passe premier à 22 min.. Chute de Chad Reed à 20 min..! Reed revient fort.. Petit problème d’embrayage pour Gautier Paulin, Guarneri passe à 14 min..! Faute de Bobryshev.. La pluie de retour.. Reed passe Paulin à 8 min.. Searle passe Gautier et Reed.. Searle passe Guarneri à 2 min..! Metcalfe comment une erreur Gautier repasse..! Strijbos revient hyper fort..
1° USA, 2° FRANCE 3° AUSTRALIE..!

FIM Motocross of Nations – France (race)
# RIDER BIKE TIME GAP PREV GAP FIRST BEST LAP LAST LAPS

1 R. Villopoto (3) KAW 34:51,718 01:44,481 17: 01:48,836 18: 01:50,771 19: 02:08,276
2 R. Dungey (1) SUZ 34:52,183 +00:00,465 +00:00,465 01:46,049 17: 01:52,044 18: 01:52,266 19: 01:52,661
3 T. Rattray (116) KAW 34:56,900 +00:04,717 +00:05,182 01:45,721 17: 01:49,256 18: 01:51,776 19: 01:51,787
4 T. Searle (10) KAW 35:09,874 +00:12,974 +00:18,156 01:46,543 17: 01:46,852 18: 01:48,783 19: 01:51,597
5 D. Guarneri (15) KAW 35:14,346 +00:04,472 +00:22,628 01:47,191 17: 01:47,901 18: 01:49,775 19: 01:52,545
6 E. Bobryshev (113) HON 35:16,312 +00:01,966 +00:24,594 01:45,688 17: 01:49,197 18: 01:49,569 19: 01:51,731
7 C. Reed (16) HON 35:16,634 +00:00,322 +00:24,916 01:46,759 17: 01:49,859 18: 01:49,937 19: 01:52,195
8 G. Paulin (21) YAM 35:17,458 +00:00,824 +00:25,740 01:47,503 17: 01:49,017 18: 01:49,529 19: 01:51,409
9 J. Herlings (112) KTM 35:18,074 +00:00,616 +00:26,356 01:46,326 17: 01:49,052 18: 01:48,952 19: 01:49,674
10 B. Metcalfe (18) SUZ 35:18,816 +00:00,742 +00:27,098 01:45,959 17: 01:48,320 18: 01:48,257 19: 01:50,311
11 K. Strijbos (6) SUZ 35:18,947 +00:00,131 +00:27,229 01:47,208 17: 01:48,767 18: 01:49,065 19: 01:52,358
12 T. Leok (43) TM 35:21,368 +00:02,421 +00:29,650 01:46,590 17: 01:49,265 18: 01:48,170 19: 01:49,120
13 A. Tonus (33) YAM 35:33,890 +00:12,522 +00:42,172 01:48,246 17: 01:49,620 18: 01:50,079 19: 01:51,694
14 J. Barragan (37) KAW 35:36,725 +00:02,835 +00:45,007 01:46,752 17: 01:54,302 18: 01:51,578 19: 01:49,685
15 B. Anderson (12) HON 35:37,096 +00:00,371 +00:45,378 01:48,652 17: 01:51,099 18: 01:50,701 19: 01:48,744
16 R. Goncalves (25) HON 35:47,723 +00:10,627 +00:56,005 01:48,594 17: 01:50,124 18: 01:48,594 19: 01:51,972
17 Y. Atsuta (55) SUZ 36:10,306 +00:22,583 +01:18,588 01:49,594 17: 01:53,775 18: 01:53,801 19: 02:00,924
18 G. Swanepoel (118) YAM 36:20,000 +00:09,694 +01:28,282 01:49,077 17: 01:55,313 18: 01:56,091 19: 01:52,764
19 C. Campano (39) YAM 36:20,716 +00:00,716 +01:28,998 01:49,635 17: 01:53,844 18: 01:52,359 19: 01:49,743
20 M. V. Daele (4) HON 36:30,457 +00:09,741 +01:38,739 01:51,025 17: 01:54,445 18: 01:51,810 19: 01:55,199
21 M. Schiffer (9) SUZ 36:35,401 +00:04,944 +01:43,683 01:50,912 17: 01:52,153 18: 01:51,756 19: 01:51,986
22 M. Walkner (36) KTM 36:42,656 +00:07,255 +01:50,938 01:50,861 17: 01:51,393 18: 01:51,962 19: 01:57,587
23 A. . . . . . . . . . . Pyrhönen (40) HON 36:44,475 +00:01,819 +01:52,757 01:51,594 17: 01:55,131 18: 01:54,357 19: 01:58,139
24 M. Michek (127) KTM 34:59,350 -1 lap -1 lap 01:51,614 16: 01:53,568 17: 01:56,789 18: 01:56,399
25 L. Correia (27) YAM 35:16,237 -1 lap -1 lap 01:51,091 16: 01:56,170 17: 01:56,116 18: 01:55,489
26 H. Brakke (110) YAM 35:24,511 -1 lap -1 lap 01:52,741 16: 01:55,910 17: 01:56,312 18: 02:00,574
27 F. Neugebauer (125) KAW 35:27,482 -1 lap -1 lap 01:51,778 16: 01:55,978 17: 01:59,645 18: 02:03,460
28 G. Krestinov (45) KAW 35:41,310 -1 lap -1 lap 01:51,158 16: 01:54,651 17: 01:54,881 18: 01:55,856
29 M. Barr (58) KTM 35:48,750 -1 lap -1 lap 01:52,736 16: 01:56,087 17: 01:59,486 18: 01:56,578
30 K. Lynggaard (121) KAW 35:49,499 -1 lap -1 lap 01:54,143 16: 01:57,921 17: 01:55,765 18: 01:56,530
31 N. Hansen (119) SUZ 35:51,215 -1 lap -1 lap 01:53,500 16: 01:56,170 17: 02:00,012 18: 01:56,815
32 T. Eriksson (42) KAW 36:14,242 -1 lap -1 lap 01:54,271 16: 02:00,264 17: 02:00,535 18: 01:59,493
33 Y. Furlato (31) KAW 35:17,961 -2 laps -2 laps 01:56,650 15: 02:07,394 16: 02:03,668 17: 02:06,528
34 R. Bird (60) KTM 35:34,783 -2 laps -2 laps 01:56,608 15: 02:04,794 16: 02:06,302 17: 02:09,883
35 C. Pourcel (19) KAW 04:11,606 -17 laps -17 laps 01:46,406 1: 01:48,278 2: 01:46,406
36 G. Schmidinger (34) HON 04:55,865 -17 laps -17 laps 02:03,792 1: 02:03,792 2: 02:07,736
37 A. Cairoli (13) KTM 02:37,462 -18 laps -18 laps 01:55,394 1: 01:55,394
38 D. Siegl (7) KTM 00:43,151 -19 laps -19 laps 00:00,000

A voir aussi :

50 commentaires sur “MOTOCROSS DES NATIONS – FRANCE : LE LIVE..!”

  1. Guiz' dit :

    Il a pas de bol quand même ce CP, mdr, si c’est pas les suspensions, puis les lunettes voici le pneu! A croire qu’il ne roule pas sur le même circuit que les autres. Prochain épisode la bougie… toujours une excuse! Bizarre jamais il va se remettre en question lui, ça sera toujours de la faute à autre chose…

  2. REN dit :

    ah le coup de lunettes ,t’ain si ça avait fly qui fasse ça on en aurait fait une affaire nationale …oui je sais je suis partial …je le prouve: http://www.youtube.com/watch?v=iEzhJyk6lA0

    PS vu comme le grand bud « bouge » la 500 au parc ahah !

  3. Guiz' dit :

    J’oubliais, on a eu chaud au cul face aux Australiens qui pourtant n’avaient que 2 top pilotes, c’est pour dire ! Mais faut dire que les 2 Ryan nous ont corrigés propre, pas fait de détails !

  4. guiz' dit :

    non, juste marre des excuses à la con à la Aubin, pourquoi pourir la grosse perf des 2 Ryan, un peu de fait play, on est pas au foot…
    Cairoli ds ce cas là va dire être tombé pour quoi, un chevreuil qui a coupe?

  5. guiz' dit :

    juste comme, les ricains très mal barrés au bout de 2 manches, les 2 Ryan ont mis tout le monde d’accord en 1 manche. Pourquoi chercher à voler ce qui est à César? Les autres avaient qu’à les passer et partir devant s’ils étaient plus forts! Et aussi, on a longtemps eu peur des Australiens qui avec seulement 2 tops pilotes nous menaçaient, avec nos 3 meilleurs pilotes mondiaux… Ah le chauvinisme bien français…

  6. Devotee dit :

    De toute façon, même sans parler de « problèmes mécaniques » pour Christophe Pourcel, on savait qu’il lui arrivait de chuter régulièrement cette saison en Championnat du Monde donc il était « aussi » possible qu’il chutât aujourd’hui.. :o )

  7. guiz' dit :

    succession de problèmes mécaniques, c’est ce que les médias disent! N’acceptant pas la défaite c’est tjs plus facile de se cacher derrière un alibi. La piste est la même pour tous, les ricains ne paient pas un mec pour sabotter les motos ou jeter des pointes « françaises » sur la piste, CP on a pas vu l’action. Il s’est loupé c’est tout. Mais c’est si facile de rejeter la faute au matériel…

  8. guiz' dit :

    jacky, c’est plus simple que tout de suite pointer le dopage du doigt. Ce que j’ai vu une nouvelle fois, c’est des pilotes ultra motivés (hormis Baggett peut-être) et surtout un gros esprit d’équipe! Ce que fait leur force. Car fin de 2e manche tout le monde les voyait foutus, et bien ils se sont craches dans les mains, eux…, et ont atomise tout le monde, même le temps de s’attendre à l’arrivée, c’est pour dire! Acceptons tout simplement leur supériorité au lieu de toujours se chercher des excuses à la Aubin… Le circuit est le même pour les ricains comme les russes…

  9. guiz' dit :

    Start, pour ma part je l’avais dit depuis le début. Paulin ferait des miracles alors que personne ne croyait en lui, et tout le monde ne voyait qu’en CP, moi je le voyais griller nos jokers.
    Et bafana, t a pas tort, y’en a tellement pour cracher sur un pilote qui va mal pour mieux l’idolâtrer au moins bon résultat. J’ai toujours dit: »tu supporte ou pas, que ce soit bons ou mauvais moments. C’est trop facile d’être tjs celui qui réussit! Pour ma part (et jms changé d’avis…) j’peux pas voir Stewart, CP, Aubin,… alors que je suis fan de Teillet, Frossard, Paulin, Villo, Cairoli,… quoi qu’on me dise. Le tout est de rester sur ses choix, pas de faire la girouette.

  10. leger dit :

    je n’ai jamais vu un professionnel tomber sur un tour de reconnaissance,il fallait que je sois à st-jean-d’angély pour voir ça!!!!!!!!!!!!!!!!!!!!!!!!!

  11. jacky dit :

    je reprends….
    les ricains qui gagnent 22 fois ça tient à autre chose que la malchance parfois des autres nations…..
    je m’explique pas la succession de nos problemes mecaniques..

  12. jacky dit :

    les ricains qui gagnent 22 fois ça tient à autre chose que la malchance des

  13. bafana dit :

    tou le monde dsl pour la faute

  14. bafana dit :

    sa me fai rire tou le disai vive pourcel et depui quil a abondonné tou le monde ti que c une merde mdr moi je ti vive pourcel tjr dan le ju et sa arrive a tou le monde une panne.

  15. start dit :

    Bon les jeux sont , tous ceux qui ne voyaient pas Gautier en open , merci de NE PLUS CHATTER !!!
    et ceux qui priaient pour que Pourcel ait sa place , DEHORS !!!

  16. Devotee dit :

    Info’ : Selon Racer X, Dean Wilson aurait roulé le dernier round de l’AMA Motocross et le MX des Nations avec le scaphoïde cassé (poignet gauche).. (!) Respect..

  17. jacky dit :

    CP a peut etre dejanté lors d’une reception ratée ,il venait de dapassé RD il roulait tres vite.
    mais un pneu qui dejante en 2011 sans raison valable ?????????????

  18. dmgwada dit :

    beau résultat de l’équipe de France, malgré l’abandon de Chris sur la 3ème manche (pneu déjanté) . Mais les USA ont bien montré qu’ils étaient encore les boss en écrasant tout le monde sur la dernière manche .
    Merci Chris, Gauthier et Marvin et toute l’équipe, vous nous avez bien fait vibrer

  19. Tom dit :

    c’est vrai qu’en plus il étais super bien parti, on connait c qualité, mais c’est vrai qu’on croirai qu’il abandonne facilement, on ce vengera en Belgique l’année prochaine :)

  20. Tom dit :

    on sait qu’on peu compter sur gautier, l’homme fort de la france, chapeau l’artiste et MERCI!

  21. Tom dit :

    ouai c’est bizarre, on est passez pas loin dommage

  22. Tom dit :

    merci pourcel!!

    • Devotee dit :

      Ce que je trouve surprenant, comme à l’époque la crevaison de Boissière sur la KTM HDI, c’est qu’on puisse encore déjanter lors d’une course comme celle-ci, genre le problème qui n’arrive jamais sur une saison complète.. (??)

  23. guiz' dit :

    on va finir 4 tu va voir le boulot, pffff

  24. guiz' dit :

    c’est mort pour la victoire! Merci Pourcel, c’est 1, pas 2 jokers aux nations! Comme quoi les US sont les US, quand faut faire l effort ils sont là !

  25. Tom dit :

    allleeezzzzzzzzzzzzz les bleus!!!!!!! pourcel et gautier vs vilopoto dungey ca va être un régal! sans oublier cairoli!!

  26. Devotee dit :

    ALLEZ ON Y CROIT, GOOO FOR THE OVERALL WIN..!!!

  27. Tom dit :

    Super GAUTIER!! belle seconde manche

  28. start dit :

    J ai écris en haut de la page que Reed avait perdu de sa superbe … ben là , il est meilleur que nous , et surtout de POUR …. à touta l heure , pourvu que Gautier … GO GAU GO !!!!!!!!!!!!!!!!!

  29. Guiz' dit :

    comme je m’y attendais Baggett et Pourcel en joker

    On a nos chances, les anglais sont devant mais Anderson ça va être autre chose !

  30. Tom dit :

    Trou de souris pas si petit que ca, on a nos chances! vite la 2éme manche :)

  31. Tom dit :

    ouai les autres on rouler aussi sans lunettes, 6éme étais une bonne place, coup de poker a tenter!

  32. Tom dit :

    On a du spectacle comme promis, dommage l’arrêt de pourcel mais on s’en sort bien

  33. Jérémy dit :

    Il faut quand même pas tout leur montrer aux qualifs !!!! :)
    Gazz en grand pour demain …

  34. Tom dit :

    bien-surs…. même si vilopoto ne nous en laisse pas trop… les italiens sont en forme aussi

  35. Tom dit :

    pour les qualifs

  36. Tom dit :

    mais les français sur le podium a chaque fois!! go go go!!

  37. Tom dit :

    pour l’instant 2 manches= 2 américains, mais on ce réserves pour demain !!

  38. start dit :

    le SEUL TEAM qui peut créer la surprise c est la France , les Belges , les anglais , les Italiens n y pourront rien !!!
    Y a que NOUS et les USA !!! J étais présent en 1977 ( a Cognac , j étais bien jeune … ) la surprise était française (PEAN , JJ BRUNO + BONY BROTHER)
    et bien demain ce sera pareil !!! go go go Gautier , Musquin à sa place , et Pourcel qui va se surpasser !!!
    P G M ( petit groupe musclé )!!!

  39. Tom dit :

    je crois qu’il y a bcp de blessé chez les belges….

  40. Tom dit :

    un grand Vilopoto !! mais Pourcel pas loin!! ca promet du grand spectacle

  41. start dit :

    Bon , de nos mousquetaires , la 1ere épée se nomme Pourcel …. et Musquin n est pas ridicule non plus , y a plus que Gautier , go go go !!!!!!!!!! Gautier go !!

    Cairoli et Dungey sont a leur place ….

    Reed a l air mal a l aise … il a vraiment perdu de sa superbe depuis le jour funeste où il s est envoyé en l air , dommage , car avant cela quelle attaque !!!! en sx ou outdoor